Time;durP1;ratioP1;P1;durP2;ratioP2;P2;SDS_P1;SDS_P2;PMS_P1;PMS_P2;Temp;Humidity;BMP_temperature;BMP_pressure;BME280_temperature;BME280_humidity;BME280_pressure;Samples;Min_cycle;Max_cycle;Signal;HPM_P1;HPM_P2
2021/11/23 00:01:00;;;;;;;41.30;22.13;;;;;;;8.37;83.51;101582.83;1740552;81;21169;-77
2021/11/23 00:03:36;;;;;;;42.33;22.85;;;;;;;8.39;83.62;101583.44;1766136;81;21390;-75
2021/11/23 00:06:08;;;;;;;39.13;21.37;;;;;;;8.38;83.43;101590.05;1766031;81;21197;-76
2021/11/23 00:08:42;;;;;;;42.25;21.45;;;;;;;8.33;83.40;101581.57;1746038;81;21758;-76
2021/11/23 00:11:15;;;;;;;44.65;22.90;;;;;;;8.29;83.54;101585.02;1733202;81;21854;-76
2021/11/23 00:13:47;;;;;;;38.13;21.27;;;;;;;8.22;83.59;101593.91;1741906;81;21372;-75
2021/11/23 00:16:22;;;;;;;44.58;24.15;;;;;;;8.19;83.90;101593.81;1760101;80;21166;-77
2021/11/23 00:18:55;;;;;;;35.80;21.25;;;;;;;8.19;83.94;101596.58;1756213;81;21187;-76
2021/11/23 00:21:28;;;;;;;36.17;20.92;;;;;;;8.16;83.96;101590.09;1765826;81;21301;-76
2021/11/23 00:24:01;;;;;;;35.60;20.77;;;;;;;8.17;84.03;101598.70;1761754;81;21382;-76
2021/11/23 00:26:34;;;;;;;38.83;21.37;;;;;;;8.19;84.06;101593.81;1725306;81;21300;-75
2021/11/23 00:29:06;;;;;;;40.48;21.55;;;;;;;8.21;84.17;101595.80;1736183;82;21186;-78
2021/11/23 00:31:45;;;;;;;37.90;20.62;;;;;;;8.28;84.15;101591.10;1765817;81;21356;-76
2021/11/23 00:34:17;;;;;;;40.95;20.32;;;;;;;8.26;83.64;101585.48;1777650;80;21470;-75
2021/11/23 00:36:51;;;;;;;41.28;20.92;;;;;;;8.17;83.66;101587.62;1799178;79;21364;-76
2021/11/23 00:39:25;;;;;;;37.05;20.97;;;;;;;8.15;83.76;101588.37;1765520;81;21784;-76
2021/11/23 00:41:58;;;;;;;46.60;22.15;;;;;;;8.13;83.79;101586.89;1746843;80;21294;-76
2021/11/23 00:44:30;;;;;;;42.45;23.65;;;;;;;8.07;83.78;101591.41;1767708;80;21198;-76
2021/11/23 00:47:03;;;;;;;44.17;22.40;;;;;;;8.00;83.88;101596.13;1768413;80;21748;-76
2021/11/23 00:49:35;;;;;;;44.48;20.80;;;;;;;7.92;84.08;101592.26;1768495;81;21303;-77
2021/11/23 00:52:08;;;;;;;43.20;22.90;;;;;;;7.88;84.29;101588.75;1777373;79;21333;-77
2021/11/23 00:54:41;;;;;;;47.05;23.42;;;;;;;7.87;84.54;101592.06;1805076;79;21266;-75
2021/11/23 00:57:15;;;;;;;47.35;24.35;;;;;;;7.88;84.66;101592.89;1804325;79;21321;-75
2021/11/23 00:59:48;;;;;;;39.75;22.50;;;;;;;7.90;84.69;101597.69;1761602;79;21343;-76
2021/11/23 01:02:23;;;;;;;38.17;20.95;;;;;;;7.92;84.72;101603.84;1751487;81;21339;-75
2021/11/23 01:04:56;;;;;;;38.80;22.35;;;;;;;7.94;84.64;101599.78;1751159;81;21702;-77
2021/11/23 01:07:29;;;;;;;38.98;21.70;;;;;;;8.00;84.62;101602.19;1751664;81;21185;-77
2021/11/23 01:10:04;;;;;;;41.50;22.45;;;;;;;8.07;84.47;101598.84;1775081;80;21199;-78
2021/11/23 01:12:36;;;;;;;41.40;21.27;;;;;;;8.09;84.28;101593.95;1787489;80;21337;-77
2021/11/23 01:15:11;;;;;;;35.63;21.07;;;;;;;8.08;84.10;101597.24;1719970;83;21212;-75
2021/11/23 01:17:53;;;;;;;37.10;20.17;;;;;;;8.05;83.92;101601.85;1699081;83;21701;-76
2021/11/23 01:20:27;;;;;;;40.80;21.50;;;;;;;8.04;84.06;101601.55;1754661;81;21230;-79
2021/11/23 01:23:05;;;;;;;39.40;21.75;;;;;;;8.05;84.00;101609.28;1836861;78;21712;-77
2021/11/23 01:25:38;;;;;;;36.50;21.00;;;;;;;8.06;84.02;101610.45;1765965;81;21340;-78
2021/11/23 01:28:12;;;;;;;34.08;20.48;;;;;;;8.06;83.86;101613.22;1837280;77;21245;-77
2021/11/23 01:30:44;;;;;;;40.63;20.40;;;;;;;8.04;83.83;101614.51;1815324;78;21194;-77
2021/11/23 01:33:17;;;;;;;38.40;20.62;;;;;;;8.03;83.93;101617.80;1812801;78;21309;-76
2021/11/23 01:35:50;;;;;;;39.73;21.57;;;;;;;7.99;83.97;101615.19;1804829;79;21925;-76
2021/11/23 01:38:22;;;;;;;41.83;21.12;;;;;;;7.96;84.03;101616.98;1757480;81;21210;-77
2021/11/23 01:40:55;;;;;;;33.13;19.87;;;;;;;7.97;84.08;101617.85;1837880;78;22018;-79
2021/11/23 01:43:36;;;;;;;32.98;20.08;;;;;;;7.98;84.03;101623.17;1837743;78;21696;-76
2021/11/23 01:46:09;;;;;;;32.70;18.82;;;;;;;8.01;84.08;101628.24;1764713;79;21321;-77
2021/11/23 01:48:42;;;;;;;36.40;20.37;;;;;;;8.04;84.09;101625.05;1787501;80;21168;-79
2021/11/23 01:51:16;;;;;;;33.60;19.92;;;;;;;8.12;84.07;101630.83;1733749;81;21258;-77
2021/11/23 01:53:49;;;;;;;39.20;21.00;;;;;;;8.15;83.81;101634.00;1837825;77;21301;-77
2021/11/23 01:56:21;;;;;;;32.08;20.02;;;;;;;8.14;83.71;101640.61;1837850;78;21305;-76
2021/11/23 01:58:54;;;;;;;32.70;18.30;;;;;;;8.16;83.60;101639.02;1766193;81;21815;-79
2021/11/23 02:01:26;;;;;;;33.10;19.52;;;;;;;8.12;83.50;101641.89;1819558;78;21285;-73
2021/11/23 02:04:00;;;;;;;32.98;19.20;;;;;;;8.09;83.66;101641.80;1757615;79;21210;-74
2021/11/23 02:06:41;;;;;;;35.95;20.00;;;;;;;8.07;83.61;101640.33;1750991;80;21234;-74
2021/11/23 02:09:13;;;;;;;36.28;19.27;;;;;;;8.05;83.65;101640.56;1748536;81;21194;-73
2021/11/23 02:11:46;;;;;;;38.10;18.37;;;;;;;8.06;83.66;101640.02;1743714;81;21180;-73
2021/11/23 02:14:19;;;;;;;31.60;18.62;;;;;;;8.07;83.56;101631.50;1735400;82;21442;-74
2021/11/23 02:16:55;;;;;;;37.03;20.45;;;;;;;8.08;83.62;101637.34;1735441;82;21468;-73
2021/11/23 02:19:28;;;;;;;43.42;22.62;;;;;;;8.02;83.52;101627.16;1726710;82;21199;-75
2021/11/23 02:22:01;;;;;;;48.17;23.32;;;;;;;7.96;83.59;101628.05;1735295;81;21267;-75
2021/11/23 02:24:36;;;;;;;39.98;20.80;;;;;;;7.94;83.71;101623.28;1734773;81;21224;-75
2021/11/23 02:27:09;;;;;;;42.03;21.48;;;;;;;7.91;83.76;101633.38;1734901;81;21252;-75
2021/11/23 02:29:41;;;;;;;43.45;22.50;;;;;;;7.88;84.00;101637.13;1709459;84;21250;-76
2021/11/23 02:32:14;;;;;;;44.63;22.45;;;;;;;7.87;84.13;101640.44;1686231;83;21341;-75
2021/11/23 02:34:49;;;;;;;37.65;20.65;;;;;;;7.85;84.15;101631.50;1705845;84;21243;-75
2021/11/23 02:37:23;;;;;;;33.60;18.25;;;;;;;7.86;84.16;101640.13;1710316;82;21255;-75
2021/11/23 02:39:56;;;;;;;42.05;19.77;;;;;;;7.88;84.19;101644.03;1737856;81;21275;-75
2021/11/23 02:42:29;;;;;;;37.67;20.17;;;;;;;7.91;84.24;101638.09;1730925;81;21245;-75
2021/11/23 02:45:04;;;;;;;34.90;19.77;;;;;;;7.91;83.95;101649.14;1729158;83;21179;-76
2021/11/23 02:47:42;;;;;;;40.23;20.35;;;;;;;7.82;83.85;101644.91;1732439;81;21213;-75
2021/11/23 02:50:16;;;;;;;37.35;18.98;;;;;;;7.73;84.02;101654.53;1765443;81;21341;-76
2021/11/23 02:52:50;;;;;;;36.10;19.35;;;;;;;7.65;84.25;101652.02;1765238;80;21729;-74
2021/11/23 02:55:26;;;;;;;;;;;;;;;7.58;84.45;101657.55;1746029;80;21768;-78
2021/11/23 02:58:00;;;;;;;38.55;21.23;;;;;;;7.53;84.65;101657.36;1709600;82;20198;-76
2021/11/23 03:00:33;;;;;;;34.60;20.52;;;;;;;7.45;84.88;101660.36;1750116;76;21160;-75
2021/11/23 03:03:07;;;;;;;47.95;22.07;;;;;;;7.41;85.04;101662.41;1834133;78;21218;-76
2021/11/23 03:05:40;;;;;;;45.15;22.35;;;;;;;7.42;85.19;101659.95;1817627;78;21301;-76
2021/11/23 03:08:13;;;;;;;45.30;23.15;;;;;;;7.45;85.31;101666.41;1801569;78;21175;-76
2021/11/23 03:10:50;;;;;;;37.05;20.90;;;;;;;7.51;85.33;101671.93;1801611;79;21309;-78
2021/11/23 03:13:24;;;;;;;35.90;19.05;;;;;;;7.54;85.17;101671.48;1801792;79;21360;-76
2021/11/23 03:15:56;;;;;;;32.05;17.73;;;;;;;7.58;85.06;101674.14;1801817;78;21182;-75
2021/11/23 03:18:29;;;;;;;40.52;22.13;;;;;;;7.65;84.99;101676.34;1802450;78;21198;-75
2021/11/23 03:21:02;;;;;;;42.60;26.00;;;;;;;7.71;84.83;101672.71;1809385;78;21385;-75
2021/11/23 03:23:35;;;;;;;61.92;40.90;;;;;;;7.83;84.66;101677.87;1804028;78;21248;-75
2021/11/23 03:26:07;;;;;;;41.50;23.45;;;;;;;7.90;84.21;101669.57;1813136;78;21163;-74
2021/11/23 03:28:39;;;;;;;63.28;37.98;;;;;;;7.92;83.79;101675.20;1811477;78;21332;-75
2021/11/23 03:31:14;;;;;;;49.65;31.57;;;;;;;7.93;83.56;101676.89;1735537;82;21266;-74
2021/11/23 03:33:46;;;;;;;74.05;47.90;;;;;;;7.99;83.28;101682.06;1753187;81;21324;-75
2021/11/23 03:36:19;;;;;;;71.92;44.58;;;;;;;7.98;83.13;101681.23;1769330;80;21349;-75
2021/11/23 03:38:51;;;;;;;64.95;37.28;;;;;;;7.98;83.01;101692.81;1752139;81;21391;-77
2021/11/23 03:41:24;;;;;;;44.93;23.73;;;;;;;8.00;82.75;101682.38;1754286;81;21364;-76
2021/11/23 03:43:56;;;;;;;40.75;22.32;;;;;;;7.93;82.39;101692.62;1748634;81;21356;-75
2021/11/23 03:46:29;;;;;;;32.17;18.15;;;;;;;7.82;82.28;101688.63;1751172;80;21760;-77
2021/11/23 03:49:02;;;;;;;33.23;18.52;;;;;;;7.79;82.50;101702.03;1751237;81;21187;-77
2021/11/23 03:51:37;;;;;;;33.18;18.10;;;;;;;7.80;82.62;101700.44;1751948;81;21246;-79
2021/11/23 03:54:10;;;;;;;25.57;14.98;;;;;;;7.79;82.59;101702.86;1750256;81;21364;-76
2021/11/23 03:56:42;;;;;;;31.13;16.87;;;;;;;7.74;82.59;101700.45;1748559;81;21333;-78
2021/11/23 03:59:15;;;;;;;25.52;14.85;;;;;;;7.73;82.69;101707.87;1746337;81;21254;-75
2021/11/23 04:01:49;;;;;;;25.12;15.15;;;;;;;7.78;82.84;101702.55;1770273;80;21285;-81
2021/11/23 04:04:25;;;;;;;24.75;15.28;;;;;;;7.81;82.61;101704.90;1816315;78;21304;-76
2021/11/23 04:06:59;;;;;;;33.48;18.27;;;;;;;7.80;82.53;101697.67;1749510;77;21360;-77
2021/11/23 04:09:32;;;;;;;43.53;19.17;;;;;;;7.75;82.40;101694.72;1728779;83;21250;-73
2021/11/23 04:12:06;;;;;;;29.45;16.15;;;;;;;7.68;82.34;101702.18;1727629;83;21192;-74
2021/11/23 04:14:40;;;;;;;29.15;15.13;;;;;;;7.61;82.49;101702.73;1728045;81;21404;-73
2021/11/23 04:17:13;;;;;;;29.70;15.75;;;;;;;7.58;82.71;101699.01;1729370;81;21171;-73
2021/11/23 04:19:46;;;;;;;34.65;14.53;;;;;;;7.59;82.83;101706.22;1728678;83;21413;-76
2021/11/23 04:22:19;;;;;;;33.45;16.20;;;;;;;7.60;82.70;101705.16;1727828;83;21768;-74
2021/11/23 04:24:55;;;;;;;29.75;14.83;;;;;;;7.58;82.50;101702.29;1727782;83;21240;-75
2021/11/23 04:27:29;;;;;;;31.62;18.07;;;;;;;7.53;82.60;101702.94;1727722;83;21211;-74
2021/11/23 04:30:01;;;;;;;41.35;22.17;;;;;;;7.56;82.70;101704.43;1727713;83;21191;-75
2021/11/23 04:32:34;;;;;;;50.98;29.05;;;;;;;7.54;82.96;101703.26;1727720;83;21202;-78
2021/11/23 04:35:08;;;;;;;83.13;44.50;;;;;;;7.55;83.11;101706.88;1728247;83;21254;-75
2021/11/23 04:37:41;;;;;;;75.32;42.38;;;;;;;7.57;83.19;101713.03;1725086;83;21203;-75
2021/11/23 04:40:15;;;;;;;69.42;40.73;;;;;;;7.58;82.99;101716.11;1727264;83;21202;-74
2021/11/23 04:42:49;;;;;;;82.50;48.08;;;;;;;7.56;82.82;101715.48;1726324;83;21255;-82
2021/11/23 04:45:21;;;;;;;100.93;63.27;;;;;;;7.55;82.70;101718.80;1724295;81;21307;-77
2021/11/23 04:47:55;;;;;;;115.97;70.37;;;;;;;7.51;82.61;101724.42;1728952;83;21195;-77
2021/11/23 04:50:27;;;;;;;99.28;52.88;;;;;;;7.52;82.73;101724.73;1712215;82;21215;-80
2021/11/23 04:53:02;;;;;;;89.60;46.92;;;;;;;7.53;82.67;101726.98;1710470;83;21238;-78
2021/11/23 04:55:35;;;;;;;90.17;53.68;;;;;;;7.54;82.59;101732.27;1728670;83;21440;-77
2021/11/23 04:58:08;;;;;;;94.22;62.48;;;;;;;7.53;82.61;101734.72;1714621;82;21340;-76
2021/11/23 05:00:40;;;;;;;96.97;67.82;;;;;;;7.52;82.55;101730.27;1712153;83;21185;-78
2021/11/23 05:03:13;;;;;;;85.17;58.10;;;;;;;7.54;82.38;101730.06;1724735;81;21252;-77
2021/11/23 05:05:48;;;;;;;70.42;41.90;;;;;;;7.54;82.07;101739.17;1712633;82;21214;-76
2021/11/23 05:08:23;;;;;;;49.73;28.42;;;;;;;7.53;81.99;101742.18;1725097;81;21203;-76
2021/11/23 05:10:56;;;;;;;37.28;22.25;;;;;;;7.54;81.72;101737.80;1715314;83;21225;-77
2021/11/23 05:13:29;;;;;;;35.98;21.17;;;;;;;7.52;81.35;101746.84;1726512;83;21800;-81
2021/11/23 05:16:06;;;;;;;38.35;18.70;;;;;;;7.51;81.34;101747.05;1725234;83;21215;-77
2021/11/23 05:18:39;;;;;;;33.70;15.78;;;;;;;7.54;81.23;101752.99;1715215;83;21387;-81
2021/11/23 05:21:11;;;;;;;27.52;13.78;;;;;;;7.58;81.06;101752.03;1727190;83;21858;-82
2021/11/23 05:23:44;;;;;;;20.02;10.98;;;;;;;7.58;80.80;101752.89;1713581;82;21210;-75
2021/11/23 05:26:17;;;;;;;17.48;10.68;;;;;;;7.58;80.30;101752.89;1721698;82;21357;-78
2021/11/23 05:28:49;;;;;;;20.77;10.85;;;;;;;7.50;80.08;101747.59;1782167;80;21310;-75
2021/11/23 05:31:22;;;;;;;21.65;10.48;;;;;;;7.49;80.04;101745.05;1729511;82;21384;-77
2021/11/23 05:33:56;;;;;;;18.85;10.38;;;;;;;7.50;79.39;101743.97;1777221;80;21405;-78
2021/11/23 05:36:29;;;;;;;17.82;9.45;;;;;;;7.45;78.90;101750.66;1754691;80;21353;-76
2021/11/23 05:39:01;;;;;;;14.90;9.73;;;;;;;7.40;78.97;101758.22;1741989;80;21235;-75
2021/11/23 05:41:35;;;;;;;22.98;10.98;;;;;;;7.39;78.40;101760.67;1741996;80;21151;-75
2021/11/23 05:44:09;;;;;;;33.88;13.43;;;;;;;7.34;78.37;101766.53;1734596;81;21327;-77
2021/11/23 05:46:46;;;;;;;67.82;19.35;;;;;;;7.38;78.66;101774.17;1770964;81;21231;-77
2021/11/23 05:49:18;;;;;;;67.22;18.48;;;;;;;7.47;78.61;101778.95;1723086;82;21339;-79
2021/11/23 05:51:53;;;;;;;57.73;15.43;;;;;;;7.53;78.10;101779.48;1773574;80;21868;-79
2021/11/23 05:54:29;;;;;;;30.60;11.75;;;;;;;7.55;77.79;101782.34;1773888;80;21254;-76
2021/11/23 05:57:03;;;;;;;21.60;9.75;;;;;;;7.58;77.58;101780.52;1772961;81;21845;-76
2021/11/23 05:59:36;;;;;;;24.30;9.98;;;;;;;7.59;77.12;101784.98;1773153;81;21824;-74
2021/11/23 06:02:08;;;;;;;16.00;9.60;;;;;;;7.58;77.33;101787.44;1773275;79;21322;-85
2021/11/23 06:04:42;;;;;;;38.40;15.50;;;;;;;7.64;76.99;101799.02;1772643;80;21852;-81
2021/11/23 06:07:15;;;;;;;75.55;29.12;;;;;;;7.62;76.41;101802.53;1728665;82;21329;-77
2021/11/23 06:09:52;;;;;;;56.88;24.15;;;;;;;7.60;76.48;101809.34;1740249;81;21305;-79
2021/11/23 06:12:29;;;;;;;50.50;22.13;;;;;;;7.61;76.72;101813.27;1772043;79;21242;-76
2021/11/23 06:15:00;;;;;;;43.33;22.22;;;;;;;7.67;76.96;101816.56;1770783;79;21184;-77
2021/11/23 06:17:34;;;;;;;27.27;15.35;;;;;;;7.76;77.17;101822.69;1770467;80;21190;-77
2021/11/23 06:20:08;;;;;;;23.18;11.22;;;;;;;7.85;77.33;101822.25;1776107;80;21776;-75
2021/11/23 06:22:40;;;;;;;19.85;9.10;;;;;;;7.93;76.96;101822.56;1743231;82;21166;-72
2021/11/23 06:25:13;;;;;;;17.65;9.45;;;;;;;7.94;76.30;101826.50;1742911;82;21769;-71
2021/11/23 06:27:45;;;;;;;15.83;8.88;;;;;;;7.90;75.72;101836.28;1703563;83;21836;-75
2021/11/23 06:30:18;;;;;;;12.30;7.12;;;;;;;7.86;75.32;101832.27;1758639;80;21743;-74
2021/11/23 06:32:52;;;;;;;14.30;7.65;;;;;;;7.79;74.63;101839.70;1762525;80;21416;-74
2021/11/23 06:35:28;;;;;;;14.78;8.30;;;;;;;7.74;74.57;101838.13;1778475;80;21325;-72
2021/11/23 06:38:01;;;;;;;13.53;8.55;;;;;;;7.70;74.92;101834.08;1779829;80;21187;-73
2021/11/23 06:40:36;;;;;;;14.10;8.25;;;;;;;7.70;75.04;101833.22;1780286;79;21274;-90
2021/11/23 06:43:09;;;;;;;25.95;9.05;;;;;;;7.67;74.99;101826.75;1748996;82;21341;-71
2021/11/23 06:45:42;;;;;;;15.58;7.97;;;;;;;7.60;75.01;101832.27;1756457;80;21396;-77
2021/11/23 06:48:15;;;;;;;17.57;9.60;;;;;;;7.55;75.08;101833.47;1769258;79;21369;-77
2021/11/23 06:50:47;;;;;;;16.42;9.68;;;;;;;7.55;75.37;101829.32;1774749;80;21317;-74
2021/11/23 06:53:20;;;;;;;17.90;8.85;;;;;;;7.58;75.27;101835.79;1686378;83;21357;-72
2021/11/23 06:55:53;;;;;;;23.83;10.60;;;;;;;7.60;75.23;101829.51;1694182;83;21214;-74
2021/11/23 06:58:26;;;;;;;23.70;10.05;;;;;;;7.62;75.24;101828.78;1660783;84;21254;-72
2021/11/23 07:00:59;;;;;;;16.65;9.20;;;;;;;7.60;75.14;101832.82;1632269;86;21321;-79
2021/11/23 07:03:32;;;;;;;16.85;9.15;;;;;;;7.56;75.11;101828.25;1661223;85;21203;-75
2021/11/23 07:06:05;;;;;;;15.33;8.43;;;;;;;7.57;75.39;101833.23;1661971;85;21417;-76
2021/11/23 07:08:37;;;;;;;21.95;7.00;;;;;;;7.61;75.59;101835.90;1657308;86;21380;-72
2021/11/23 07:11:12;;;;;;;8.90;5.62;;;;;;;7.68;75.40;101829.31;1674010;82;21262;-71
2021/11/23 07:13:46;;;;;;;10.18;5.58;;;;;;;7.77;75.12;101832.16;1725914;81;21368;-79
2021/11/23 07:16:19;;;;;;;8.25;4.87;;;;;;;7.84;73.13;101828.85;1707465;82;21202;-74
2021/11/23 07:18:52;;;;;;;8.58;4.75;;;;;;;7.79;72.17;101834.17;1731809;81;21856;-73
2021/11/23 07:21:24;;;;;;;14.73;6.10;;;;;;;7.79;72.71;101830.02;1702934;84;21336;-76
2021/11/23 07:23:58;;;;;;;6.97;4.03;;;;;;;7.82;72.56;101833.75;1723437;82;21278;-73
2021/11/23 07:26:31;;;;;;;7.40;4.25;;;;;;;7.83;72.31;101840.98;1726927;83;21796;-78
2021/11/23 07:29:04;;;;;;;10.18;4.25;;;;;;;7.88;72.49;101837.56;1699473;84;21210;-81
2021/11/23 07:31:37;;;;;;;7.70;4.80;;;;;;;7.94;72.45;101844.48;1706222;83;21556;-74
2021/11/23 07:34:16;;;;;;;10.05;5.95;;;;;;;8.01;72.33;101841.16;1701504;84;21348;-76
2021/11/23 07:36:49;;;;;;;25.35;11.10;;;;;;;8.09;72.17;101839.55;1728641;83;21340;-78
2021/11/23 07:39:21;;;;;;;23.12;10.82;;;;;;;8.12;71.96;101841.03;1726513;83;21234;-77
2021/11/23 07:41:54;;;;;;;36.50;11.60;;;;;;;8.12;72.25;101846.04;1714761;83;21183;-77
2021/11/23 07:44:27;;;;;;;22.42;10.85;;;;;;;8.09;71.82;101854.75;1727250;82;21766;-75
2021/11/23 07:46:59;;;;;;;27.93;11.40;;;;;;;8.06;71.85;101852.44;1707861;84;21386;-74
2021/11/23 07:49:31;;;;;;;19.87;9.45;;;;;;;8.07;71.88;101853.27;1709309;83;21413;-73
2021/11/23 07:52:04;;;;;;;15.80;6.47;;;;;;;8.08;71.65;101857.20;1720663;82;21191;-73
2021/11/23 07:54:39;;;;;;;16.85;7.97;;;;;;;8.06;70.86;101863.50;1708506;84;21348;-73
2021/11/23 07:57:13;;;;;;;11.88;6.42;;;;;;;8.02;70.80;101864.98;1722897;82;21251;-80
2021/11/23 07:59:47;;;;;;;12.78;5.75;;;;;;;8.00;70.36;101864.88;1678989;83;21365;-82
2021/11/23 08:02:20;;;;;;;8.60;5.67;;;;;;;8.01;70.44;101869.34;1718916;83;21255;-78
2021/11/23 08:04:54;;;;;;;12.45;5.78;;;;;;;8.02;70.32;101871.06;1698622;84;21214;-82
2021/11/23 08:07:28;;;;;;;15.30;6.55;;;;;;;8.03;70.25;101881.05;1710453;84;21425;-74
2021/11/23 08:10:01;;;;;;;11.85;6.37;;;;;;;8.10;70.43;101879.98;1710631;82;21768;-77
2021/11/23 08:12:34;;;;;;;8.78;4.95;;;;;;;8.14;69.73;101882.62;1729708;82;21332;-80
2021/11/23 08:15:07;;;;;;;8.77;5.73;;;;;;;8.16;69.30;101877.75;1729072;82;21801;-81
2021/11/23 08:17:39;;;;;;;12.90;6.40;;;;;;;8.19;69.51;101891.16;1722767;83;21792;-77
2021/11/23 08:20:12;;;;;;;10.78;6.65;;;;;;;8.22;69.13;101886.59;1718098;83;21258;-76
2021/11/23 08:22:48;;;;;;;9.78;5.60;;;;;;;8.20;68.67;101895.63;1716514;82;21198;-78
2021/11/23 08:25:20;;;;;;;14.30;8.38;;;;;;;8.16;68.43;101885.18;1727451;83;21185;-74
2021/11/23 08:27:54;;;;;;;19.00;9.68;;;;;;;8.13;68.85;101889.22;1718006;82;21236;-75
2021/11/23 08:30:27;;;;;;;11.73;6.95;;;;;;;8.15;68.98;101888.46;1727848;82;21934;-79
2021/11/23 08:33:01;;;;;;;15.75;7.92;;;;;;;8.16;68.84;101891.58;1726643;82;21253;-81
2021/11/23 08:35:34;;;;;;;13.98;6.67;;;;;;;8.13;69.00;101894.75;1729031;82;21230;-74
2021/11/23 08:38:06;;;;;;;20.08;6.80;;;;;;;8.07;69.03;101889.22;1710762;84;21864;-73
2021/11/23 08:40:40;;;;;;;16.67;8.13;;;;;;;7.99;69.12;101891.70;1710739;83;21930;-78
2021/11/23 08:43:12;;;;;;;20.30;9.63;;;;;;;7.92;69.70;101892.76;1703022;82;21350;-74
2021/11/23 08:46:00;;;;;;;21.30;8.65;;;;;;;7.89;70.35;101895.42;1703175;82;21186;-77
2021/11/23 08:48:19;;;;;;;19.52;6.47;;;;;;;7.90;70.36;101899.88;1687056;84;21249;-73
2021/11/23 08:50:51;;;;;;;15.05;6.30;;;;;;;7.93;70.52;101898.08;1699240;83;21214;-76
2021/11/23 08:53:25;;;;;;;9.65;5.70;;;;;;;7.95;70.62;101898.71;1683735;84;21210;-76
2021/11/23 08:55:57;;;;;;;9.48;5.65;;;;;;;7.93;70.32;101902.23;1705367;83;21341;-76
2021/11/23 08:58:30;;;;;;;12.53;6.35;;;;;;;7.92;70.27;101898.28;1704805;82;21369;-72
2021/11/23 09:01:03;;;;;;;9.08;5.42;;;;;;;7.92;70.36;101895.00;1706442;84;21307;-77
2021/11/23 09:03:39;;;;;;;18.17;7.47;;;;;;;7.93;70.71;101898.08;1691070;85;21376;-80
2021/11/23 09:06:10;;;;;;;15.93;7.33;;;;;;;7.96;70.15;101899.02;1724954;82;21375;-76
2021/11/23 09:11:19;;;;;;;10.53;5.65;;;;;;;7.99;70.33;101904.66;1700024;82;21725;-78
2021/11/23 09:13:56;;;;;;;8.75;6.05;;;;;;;8.01;70.14;101903.91;1739303;82;21329;-75
2021/11/23 09:16:29;;;;;;;13.08;6.67;;;;;;;7.98;70.24;101903.83;1740444;82;21321;-79
2021/11/23 09:19:04;;;;;;;12.73;6.78;;;;;;;7.97;70.30;101899.89;1742736;82;21680;-75
2021/11/23 09:21:37;;;;;;;15.05;6.03;;;;;;;7.95;70.66;101903.41;1742972;82;21246;-79
2021/11/23 09:24:10;;;;;;;11.93;6.62;;;;;;;7.91;70.90;101904.89;1742825;82;21196;-77
2021/11/23 09:26:44;;;;;;;10.10;6.22;;;;;;;7.87;71.19;101917.42;1743125;82;21759;-75
2021/11/23 09:29:16;;;;;;;;;;;;;;;7.88;71.56;101913.59;1745613;82;21328;-80
2021/11/23 09:31:49;;;;;;;21.68;8.68;;;;;;;7.85;71.45;101912.66;1742841;82;20257;-74
2021/11/23 09:34:23;;;;;;;17.30;8.15;;;;;;;7.81;72.23;101916.89;1743222;82;21328;-76
2021/11/23 09:36:57;;;;;;;15.13;8.50;;;;;;;7.82;73.08;101914.44;1743752;82;21369;-79
2021/11/23 09:39:30;;;;;;;13.85;7.67;;;;;;;7.85;73.42;101923.70;1742985;82;21455;-79
2021/11/23 09:42:04;;;;;;;12.05;6.72;;;;;;;7.89;73.94;101922.23;1742670;82;21843;-79
2021/11/23 09:44:42;;;;;;;9.45;6.78;;;;;;;7.90;74.25;101921.16;1742954;82;21258;-80
2021/11/23 09:47:14;;;;;;;12.43;6.35;;;;;;;7.92;74.53;101920.41;1743045;82;21857;-76
2021/11/23 09:49:47;;;;;;;17.77;7.40;;;;;;;7.93;74.76;101922.97;1742537;82;21302;-76
2021/11/23 09:52:43;;;;;;;12.58;6.30;;;;;;;7.97;74.86;101926.98;1743192;82;21325;-79
2021/11/23 09:55:17;;;;;;;10.15;6.75;;;;;;;8.04;74.81;101925.62;1743072;82;21183;-76
2021/11/23 09:57:49;;;;;;;11.55;6.40;;;;;;;8.07;74.66;101926.55;1743441;82;21345;-78
2021/11/23 10:00:34;;;;;;;14.80;6.05;;;;;;;8.08;74.71;101924.97;1742584;82;21436;-79
2021/11/23 10:03:18;;;;;;;10.85;6.67;;;;;;;8.11;74.14;101932.85;1742809;82;21342;-78
2021/11/23 10:05:53;;;;;;;15.28;6.80;;;;;;;8.12;74.33;101929.53;1742670;82;21167;-77
2021/11/23 10:08:26;;;;;;;11.73;6.33;;;;;;;8.15;74.28;101936.03;1718097;78;21173;-77
2021/11/23 10:10:58;;;;;;;15.80;6.15;;;;;;;8.13;73.71;101936.24;1706416;82;21847;-81
2021/11/23 10:13:50;;;;;;;8.13;4.70;;;;;;;8.10;73.69;101938.59;1737240;81;21380;-81
2021/11/23 10:16:23;;;;;;;8.95;4.40;;;;;;;8.03;73.57;101946.88;1736570;82;21199;-79
2021/11/23 10:18:56;;;;;;;11.37;3.90;;;;;;;7.91;73.31;101946.36;1736964;82;21163;-79
2021/11/23 10:21:31;;;;;;;;;;;;;;;7.82;73.66;101944.85;1703269;83;21328;-79
2021/11/23 10:24:22;;;;;;;9.13;4.47;;;;;;;7.77;74.22;101944.11;1710521;83;20267;-80
2021/11/23 10:26:56;;;;;;;7.92;3.65;;;;;;;7.79;74.18;101941.98;1736431;82;21344;-78
2021/11/23 10:29:29;;;;;;;9.53;3.85;;;;;;;7.74;73.53;101943.69;1710369;82;21321;-77
2021/11/23 10:32:02;;;;;;;6.25;3.92;;;;;;;7.66;72.97;101941.97;1742353;82;21187;-78
2021/11/23 10:34:35;;;;;;;16.40;6.03;;;;;;;7.55;72.55;101946.77;1673665;82;21454;-76
2021/11/23 10:37:10;;;;;;;43.65;13.00;;;;;;;7.44;73.59;101947.38;1740235;81;21223;-80
2021/11/23 10:39:43;;;;;;;40.38;15.65;;;;;;;7.40;74.39;101946.59;1716822;82;21870;-76
2021/11/23 10:42:16;;;;;;;15.23;7.75;;;;;;;7.38;74.69;101952.35;1715071;83;21204;-76
2021/11/23 10:44:56;;;;;;;8.37;5.30;;;;;;;7.34;74.85;101953.82;1750737;82;21823;-75
2021/11/23 10:47:29;;;;;;;6.42;4.10;;;;;;;7.31;74.81;101954.77;1742325;82;21381;-73
2021/11/23 10:50:08;;;;;;;7.80;4.40;;;;;;;7.31;75.11;101953.38;1731937;81;21735;-79
2021/11/23 10:52:48;;;;;;;7.72;4.62;;;;;;;7.32;75.24;101948.73;1736374;81;21409;-78
2021/11/23 10:55:33;;;;;;;12.93;5.33;;;;;;;7.33;75.79;101953.19;1736588;82;21349;-74
2021/11/23 10:58:08;;;;;;;7.87;5.12;;;;;;;7.35;75.67;101955.52;1736657;82;21438;-80
2021/11/23 11:00:44;;;;;;;9.38;5.20;;;;;;;7.35;75.88;101951.38;1736800;82;21836;-73
2021/11/23 11:03:25;;;;;;;5.58;4.00;;;;;;;7.34;76.08;101957.96;1736701;82;21191;-79
2021/11/23 11:05:58;;;;;;;9.75;4.70;;;;;;;7.32;75.53;101957.02;1736726;82;21187;-73
2021/11/23 11:08:39;;;;;;;7.78;5.20;;;;;;;7.27;75.82;101962.30;1738837;81;21787;-78
2021/11/23 11:11:17;;;;;;;10.05;4.65;;;;;;;7.25;75.74;101952.84;1812465;77;21372;-73
2021/11/23 11:13:53;;;;;;;8.38;4.65;;;;;;;7.24;75.80;101956.11;1747143;80;21740;-78
2021/11/23 11:16:28;;;;;;;6.95;4.87;;;;;;;7.19;75.83;101960.57;1789019;80;21811;-78
2021/11/23 11:19:15;;;;;;;5.90;4.30;;;;;;;7.14;76.11;101959.50;1784598;80;21726;-74
2021/11/23 11:21:57;;;;;;;13.00;6.53;;;;;;;7.13;76.43;101957.77;1784183;79;21732;-75
2021/11/23 11:24:40;;;;;;;9.93;5.85;;;;;;;7.15;77.02;101953.75;1784119;80;21185;-73
2021/11/23 11:27:38;;;;;;;10.85;6.08;;;;;;;7.13;76.72;101956.39;1783891;79;21861;-74
2021/11/23 11:30:36;;;;;;;5.85;3.87;;;;;;;7.10;77.26;101962.34;1756085;80;21203;-73
2021/11/23 11:33:14;;;;;;;9.58;5.40;;;;;;;7.06;77.17;101943.09;1808731;79;21752;-75
2021/11/23 11:35:51;;;;;;;11.95;6.10;;;;;;;7.09;77.77;101955.95;1788640;78;21914;-73
2021/11/23 11:38:38;;;;;;;16.07;6.17;;;;;;;7.13;78.05;101952.25;1784407;78;21185;-76
2021/11/23 11:41:42;;;;;;;13.78;6.53;;;;;;;7.17;78.22;101956.31;1782860;80;21205;-80
2021/11/23 11:47:06;;;;;;;14.53;4.50;;;;;;;7.20;77.53;101958.67;1808854;78;21822;-75
2021/11/23 11:49:55;;;;;;;15.72;5.62;;;;;;;7.17;77.57;101960.45;1789036;80;21531;-73
2021/11/23 11:52:34;;;;;;;11.90;5.03;;;;;;;7.13;77.68;101960.53;1784842;80;21855;-73
2021/11/23 11:55:24;;;;;;;16.48;5.33;;;;;;;7.10;77.35;101960.96;1784063;79;21290;-76
2021/11/23 11:58:03;;;;;;;16.37;5.25;;;;;;;7.07;78.18;101965.50;1783976;79;21320;-74
2021/11/23 12:00:42;;;;;;;14.30;4.45;;;;;;;7.09;78.38;101973.91;1756082;80;21852;-75